La Hulpe, Belgium
Current Conditions -  °F | °C
As of 11:50 PM on Tuesday 21 Oct 2014 (Local Time) from EBBR Reporting Station
Scattered Clouds Scattered Clouds  
Wind Chill: 41°   Ceiling: Unl
Heat Index: 48°   Visibility: 6mi
Dew Point: 39°   Wind: 20mph
Humidity: 71%   Direction: 280°W
Pressure: 29.91"   Gusts: NA
Location:  50.73°N, 4.49°E
Report Text: EBBR 212150Z 28017KT 9999 FEW027 SCT048 09/04 Q1013 TEMPO 28018G30KT
Loading
Personal Weather Stations






























Interactive Weather Map
Tropical Storm Tracking
New forecast layout! Learn more

10-Day Weather Forecast

Advertisements
Track Severe Weather on mobile